sensor_id;sensor_type;location;lat;lon;timestamp;pressure;altitude;pressure_sealevel;temperature;humidity
54808;BME280;40708;50.364;7.550;2022-07-06T00:00:45;101195.13;;;16.82;100.00
54808;BME280;40708;50.364;7.550;2022-07-06T00:03:10;101203.16;;;16.82;100.00
54808;BME280;40708;50.364;7.550;2022-07-06T00:05:36;101204.97;;;16.78;100.00
54808;BME280;40708;50.364;7.550;2022-07-06T00:08:01;101197.84;;;16.79;100.00
54808;BME280;40708;50.364;7.550;2022-07-06T00:10:27;101200.50;;;16.77;100.00
54808;BME280;40708;50.364;7.550;2022-07-06T00:12:52;101205.91;;;16.76;100.00
54808;BME280;40708;50.364;7.550;2022-07-06T00:15:17;101197.88;;;16.74;100.00
54808;BME280;40708;50.364;7.550;2022-07-06T00:17:43;101199.72;;;16.71;100.00
54808;BME280;40708;50.364;7.550;2022-07-06T00:20:08;101205.13;;;16.67;100.00
54808;BME280;40708;50.364;7.550;2022-07-06T00:22:34;101206.91;;;16.69;100.00
54808;BME280;40708;50.364;7.550;2022-07-06T00:24:59;101202.47;;;16.64;100.00
54808;BME280;40708;50.364;7.550;2022-07-06T00:27:24;101202.53;;;16.58;100.00
54808;BME280;40708;50.364;7.550;2022-07-06T00:29:50;101209.78;;;16.47;100.00
54808;BME280;40708;50.364;7.550;2022-07-06T00:32:15;101209.00;;;16.38;100.00
54808;BME280;40708;50.364;7.550;2022-07-06T00:34:40;101212.63;;;16.31;100.00
54808;BME280;40708;50.364;7.550;2022-07-06T00:37:06;101216.34;;;16.22;100.00
54808;BME280;40708;50.364;7.550;2022-07-06T00:39:32;101215.56;;;16.11;100.00
54808;BME280;40708;50.364;7.550;2022-07-06T00:41:58;101220.06;;;16.04;100.00
54808;BME280;40708;50.364;7.550;2022-07-06T00:44:23;101217.50;;;15.94;100.00
54808;BME280;40708;50.364;7.550;2022-07-06T00:46:48;101223.84;;;15.84;100.00
54808;BME280;40708;50.364;7.550;2022-07-06T00:49:14;101217.63;;;15.80;100.00
54808;BME280;40708;50.364;7.550;2022-07-06T00:51:58;101217.66;;;15.74;100.00
54808;BME280;40708;50.364;7.550;2022-07-06T00:54:25;101215.03;;;15.68;100.00
54808;BME280;40708;50.364;7.550;2022-07-06T00:56:50;101218.63;;;15.63;100.00
54808;BME280;40708;50.364;7.550;2022-07-06T00:59:16;101215.09;;;15.61;100.00
54808;BME280;40708;50.364;7.550;2022-07-06T01:01:41;101217.81;;;15.56;100.00
54808;BME280;40708;50.364;7.550;2022-07-06T01:04:07;101219.63;;;15.51;100.00
54808;BME280;40708;50.364;7.550;2022-07-06T01:06:32;101214.31;;;15.48;100.00
54808;BME280;40708;50.364;7.550;2022-07-06T01:08:58;101219.66;;;15.45;100.00
54808;BME280;40708;50.364;7.550;2022-07-06T01:11:24;101214.34;;;15.40;100.00
54808;BME280;40708;50.364;7.550;2022-07-06T01:13:50;101224.13;;;15.38;100.00
54808;BME280;40708;50.364;7.550;2022-07-06T01:16:17;101210.81;;;15.35;100.00
54808;BME280;40708;50.364;7.550;2022-07-06T01:18:43;101224.19;;;15.31;100.00
54808;BME280;40708;50.364;7.550;2022-07-06T01:21:12;101227.81;;;15.24;100.00
54808;BME280;40708;50.364;7.550;2022-07-06T01:23:39;101215.38;;;15.18;100.00
54808;BME280;40708;50.364;7.550;2022-07-06T01:26:04;101222.50;;;15.15;100.00
54808;BME280;40708;50.364;7.550;2022-07-06T01:28:30;101217.19;;;15.12;100.00
54808;BME280;40708;50.364;7.550;2022-07-06T01:30:55;101222.56;;;15.07;100.00
54808;BME280;40708;50.364;7.550;2022-07-06T01:33:20;101218.13;;;15.02;100.00
54808;BME280;40708;50.364;7.550;2022-07-06T01:35:46;101219.03;;;15.01;100.00
54808;BME280;40708;50.364;7.550;2022-07-06T01:38:11;101213.72;;;14.96;100.00
54808;BME280;40708;50.364;7.550;2022-07-06T01:40:37;101217.28;;;14.95;100.00
54808;BME280;40708;50.364;7.550;2022-07-06T01:43:02;101213.75;;;14.90;100.00
54808;BME280;40708;50.364;7.550;2022-07-06T01:45:31;101220.00;;;14.86;100.00
54808;BME280;40708;50.364;7.550;2022-07-06T01:47:57;101225.38;;;14.80;100.00
54808;BME280;40708;50.364;7.550;2022-07-06T01:50:22;101229.84;;;14.75;100.00
54808;BME280;40708;50.364;7.550;2022-07-06T01:52:48;101226.31;;;14.68;100.00
54808;BME280;40708;50.364;7.550;2022-07-06T01:55:13;101229.88;;;14.66;100.00
54808;BME280;40708;50.364;7.550;2022-07-06T01:57:38;101228.13;;;14.57;100.00
54808;BME280;40708;50.364;7.550;2022-07-06T02:00:06;101233.47;;;14.51;100.00
54808;BME280;40708;50.364;7.550;2022-07-06T02:02:32;101232.63;;;14.45;100.00
54808;BME280;40708;50.364;7.550;2022-07-06T02:04:57;101238.88;;;14.39;100.00
54808;BME280;40708;50.364;7.550;2022-07-06T02:07:22;101233.56;;;14.35;100.00
54808;BME280;40708;50.364;7.550;2022-07-06T02:09:48;101240.63;;;14.28;100.00
54808;BME280;40708;50.364;7.550;2022-07-06T02:12:13;101236.19;;;14.22;100.00
54808;BME280;40708;50.364;7.550;2022-07-06T02:14:38;101242.44;;;14.18;100.00
54808;BME280;40708;50.364;7.550;2022-07-06T02:17:03;101242.44;;;14.11;100.00
54808;BME280;40708;50.364;7.550;2022-07-06T02:19:29;101248.69;;;14.10;100.00
54808;BME280;40708;50.364;7.550;2022-07-06T02:21:54;101248.66;;;14.05;100.00
54808;BME280;40708;50.364;7.550;2022-07-06T02:24:19;101246.91;;;13.98;100.00
54808;BME280;40708;50.364;7.550;2022-07-06T02:26:45;101254.03;;;13.93;100.00
54808;BME280;40708;50.364;7.550;2022-07-06T02:29:10;101250.44;;;13.94;100.00
54808;BME280;40708;50.364;7.550;2022-07-06T02:31:35;101249.59;;;13.91;100.00
54808;BME280;40708;50.364;7.550;2022-07-06T02:34:01;101244.22;;;13.89;100.00
54808;BME280;40708;50.364;7.550;2022-07-06T02:36:26;101250.50;;;13.91;100.00
54808;BME280;40708;50.364;7.550;2022-07-06T02:38:51;101245.13;;;13.93;100.00
54808;BME280;40708;50.364;7.550;2022-07-06T02:41:17;101239.81;;;13.96;100.00
54808;BME280;40708;50.364;7.550;2022-07-06T02:43:42;101252.25;;;13.94;100.00
54808;BME280;40708;50.364;7.550;2022-07-06T02:46:07;101247.78;;;13.94;100.00
54808;BME280;40708;50.364;7.550;2022-07-06T02:48:33;101254.00;;;13.92;100.00
54808;BME280;40708;50.364;7.550;2022-07-06T02:50:58;101245.16;;;13.88;100.00
54808;BME280;40708;50.364;7.550;2022-07-06T02:53:24;101254.03;;;13.83;100.00
54808;BME280;40708;50.364;7.550;2022-07-06T02:55:49;101243.34;;;13.78;100.00
54808;BME280;40708;50.364;7.550;2022-07-06T02:58:14;101253.13;;;13.73;100.00
54808;BME280;40708;50.364;7.550;2022-07-06T03:00:40;101261.16;;;13.75;100.00
54808;BME280;40708;50.364;7.550;2022-07-06T03:03:05;101255.78;;;13.67;100.00
54808;BME280;40708;50.364;7.550;2022-07-06T03:05:30;101270.91;;;13.54;100.00
54808;BME280;40708;50.364;7.550;2022-07-06T03:07:56;101265.53;;;13.44;100.00
54808;BME280;40708;50.364;7.550;2022-07-06T03:10:21;101261.09;;;13.38;100.00
54808;BME280;40708;50.364;7.550;2022-07-06T03:12:46;101255.75;;;13.32;100.00
54808;BME280;40708;50.364;7.550;2022-07-06T03:15:12;101260.19;;;13.29;100.00
54808;BME280;40708;50.364;7.550;2022-07-06T03:17:37;101264.63;;;13.25;100.00
54808;BME280;40708;50.364;7.550;2022-07-06T03:20:04;101271.72;;;13.20;100.00
54808;BME280;40708;50.364;7.550;2022-07-06T03:22:30;101276.13;;;13.18;100.00
54808;BME280;40708;50.364;7.550;2022-07-06T03:24:55;101277.91;;;13.13;100.00
54808;BME280;40708;50.364;7.550;2022-07-06T03:27:21;101275.25;;;13.11;100.00
54808;BME280;40708;50.364;7.550;2022-07-06T03:29:46;101278.75;;;13.07;100.00
54808;BME280;40708;50.364;7.550;2022-07-06T03:32:11;101285.84;;;13.04;100.00
54808;BME280;40708;50.364;7.550;2022-07-06T03:34:36;101283.13;;;12.99;100.00
54808;BME280;40708;50.364;7.550;2022-07-06T03:37:02;101286.69;;;12.97;100.00
54808;BME280;40708;50.364;7.550;2022-07-06T03:39:27;101284.03;;;12.95;100.00
54808;BME280;40708;50.364;7.550;2022-07-06T03:41:53;101292.91;;;12.96;100.00
54808;BME280;40708;50.364;7.550;2022-07-06T03:44:18;101292.00;;;12.97;100.00
54808;BME280;40708;50.364;7.550;2022-07-06T03:46:43;101296.50;;;13.04;100.00
54808;BME280;40708;50.364;7.550;2022-07-06T03:49:09;101293.91;;;13.16;100.00
54808;BME280;40708;50.364;7.550;2022-07-06T03:51:34;101295.69;;;13.20;100.00
54808;BME280;40708;50.364;7.550;2022-07-06T03:53:59;101294.84;;;13.35;100.00
54808;BME280;40708;50.364;7.550;2022-07-06T03:56:25;101288.66;;;13.52;100.00
54808;BME280;40708;50.364;7.550;2022-07-06T03:58:54;101298.47;;;13.70;100.00
54808;BME280;40708;50.364;7.550;2022-07-06T04:01:19;101302.06;;;13.89;100.00
54808;BME280;40708;50.364;7.550;2022-07-06T04:03:45;101303.81;;;14.14;100.00
54808;BME280;40708;50.364;7.550;2022-07-06T04:06:10;101294.03;;;14.20;100.00
54808;BME280;40708;50.364;7.550;2022-07-06T04:08:36;101298.50;;;14.06;100.00
54808;BME280;40708;50.364;7.550;2022-07-06T04:11:01;101301.16;;;14.05;100.00
54808;BME280;40708;50.364;7.550;2022-07-06T04:13:27;101304.72;;;13.93;100.00
54808;BME280;40708;50.364;7.550;2022-07-06T04:15:52;101306.50;;;13.88;100.00
54808;BME280;40708;50.364;7.550;2022-07-06T04:18:18;101309.16;;;14.02;100.00
54808;BME280;40708;50.364;7.550;2022-07-06T04:20:43;101317.16;;;14.14;100.00
54808;BME280;40708;50.364;7.550;2022-07-06T04:23:08;101316.28;;;14.42;100.00
54808;BME280;40708;50.364;7.550;2022-07-06T04:25:34;101313.53;;;14.83;100.00
54808;BME280;40708;50.364;7.550;2022-07-06T04:27:59;101312.50;;;15.19;100.00
54808;BME280;40708;50.364;7.550;2022-07-06T04:30:25;101314.25;;;15.17;100.00
54808;BME280;40708;50.364;7.550;2022-07-06T04:32:50;101316.84;;;15.39;100.00
54808;BME280;40708;50.364;7.550;2022-07-06T04:35:15;101318.69;;;15.22;100.00
54808;BME280;40708;50.364;7.550;2022-07-06T04:37:41;101316.03;;;15.27;100.00
54808;BME280;40708;50.364;7.550;2022-07-06T04:40:06;101322.97;;;15.61;100.00
54808;BME280;40708;50.364;7.550;2022-07-06T04:42:32;101324.63;;;15.83;100.00
54808;BME280;40708;50.364;7.550;2022-07-06T04:44:57;101319.25;;;15.86;100.00
54808;BME280;40708;50.364;7.550;2022-07-06T04:47:23;101322.81;;;15.85;100.00
54808;BME280;40708;50.364;7.550;2022-07-06T04:49:48;101318.41;;;15.80;100.00
54808;BME280;40708;50.364;7.550;2022-07-06T04:52:13;101317.38;;;15.96;100.00
54808;BME280;40708;50.364;7.550;2022-07-06T04:54:39;101310.28;;;15.93;100.00
54808;BME280;40708;50.364;7.550;2022-07-06T04:57:04;101317.22;;;16.19;100.00
54808;BME280;40708;50.364;7.550;2022-07-06T04:59:30;101305.31;;;16.48;100.00
54808;BME280;40708;50.364;7.550;2022-07-06T05:01:58;101305.22;;;16.62;100.00
54808;BME280;40708;50.364;7.550;2022-07-06T05:04:24;101313.94;;;16.82;100.00
54808;BME280;40708;50.364;7.550;2022-07-06T05:06:50;101317.16;;;17.11;100.00
54808;BME280;40708;50.364;7.550;2022-07-06T05:09:15;101312.06;;;17.57;100.00
54808;BME280;40708;50.364;7.550;2022-07-06T05:11:40;101318.13;;;17.70;100.00
54808;BME280;40708;50.364;7.550;2022-07-06T05:14:06;101325.19;;;17.78;100.00
54808;BME280;40708;50.364;7.550;2022-07-06T05:16:32;101310.75;;;18.37;100.00
54808;BME280;40708;50.364;7.550;2022-07-06T05:18:58;101316.47;;;18.19;100.00
54808;BME280;40708;50.364;7.550;2022-07-06T05:21:23;101327.00;;;18.31;100.00
54808;BME280;40708;50.364;7.550;2022-07-06T05:23:48;101325.81;;;18.49;100.00
54808;BME280;40708;50.364;7.550;2022-07-06T05:26:14;101320.44;;;18.95;100.00
54808;BME280;40708;50.364;7.550;2022-07-06T05:28:39;101317.59;;;19.47;100.00
54808;BME280;40708;50.364;7.550;2022-07-06T05:31:05;101322.22;;;19.80;100.00
54808;BME280;40708;50.364;7.550;2022-07-06T05:33:31;101319.63;;;20.12;100.00
54808;BME280;40708;50.364;7.550;2022-07-06T05:35:56;101319.25;;;19.91;100.00
54808;BME280;40708;50.364;7.550;2022-07-06T05:38:21;101325.53;;;19.51;100.00
54808;BME280;40708;50.364;7.550;2022-07-06T05:40:47;101327.22;;;19.16;100.00
54808;BME280;40708;50.364;7.550;2022-07-06T05:43:12;101325.19;;;19.27;100.00
54808;BME280;40708;50.364;7.550;2022-07-06T05:45:38;101326.03;;;17.82;100.00
54808;BME280;40708;50.364;7.550;2022-07-06T05:48:03;101332.28;;;17.82;100.00
54808;BME280;40708;50.364;7.550;2022-07-06T05:50:47;101338.78;;;16.93;100.00
54808;BME280;40708;50.364;7.550;2022-07-06T05:53:13;101339.13;;;16.64;100.00
54808;BME280;40708;50.364;7.550;2022-07-06T05:55:38;101337.34;;;16.60;100.00
54808;BME280;40708;50.364;7.550;2022-07-06T05:58:04;101341.66;;;16.78;100.00
54808;BME280;40708;50.364;7.550;2022-07-06T06:00:29;101336.00;;;17.02;100.00
54808;BME280;40708;50.364;7.550;2022-07-06T06:02:55;101340.47;;;17.02;100.00
54808;BME280;40708;50.364;7.550;2022-07-06T06:05:21;101340.47;;;17.02;100.00
54808;BME280;40708;50.364;7.550;2022-07-06T06:07:46;101340.94;;;16.62;100.00
54808;BME280;40708;50.364;7.550;2022-07-06T06:10:14;101337.31;;;16.68;100.00
54808;BME280;40708;50.364;7.550;2022-07-06T06:12:40;101333.81;;;16.58;100.00
54808;BME280;40708;50.364;7.550;2022-07-06T06:15:06;101324.97;;;16.47;100.00
54808;BME280;40708;50.364;7.550;2022-07-06T06:17:32;101334.72;;;16.59;100.00
54808;BME280;40708;50.364;7.550;2022-07-06T06:19:58;101341.88;;;16.52;100.00
54808;BME280;40708;50.364;7.550;2022-07-06T06:22:24;101338.38;;;16.44;100.00
54808;BME280;40708;50.364;7.550;2022-07-06T06:24:50;101326.59;;;16.68;100.00
54808;BME280;40708;50.364;7.550;2022-07-06T06:27:15;101337.31;;;16.68;100.00
54808;BME280;40708;50.364;7.550;2022-07-06T06:29:41;101336.63;;;16.42;100.00
54808;BME280;40708;50.364;7.550;2022-07-06T06:32:07;101342.78;;;16.51;100.00
54808;BME280;40708;50.364;7.550;2022-07-06T06:34:33;101348.47;;;16.17;100.00
54808;BME280;40708;50.364;7.550;2022-07-06T06:36:58;101348.41;;;16.21;100.00
54808;BME280;40708;50.364;7.550;2022-07-06T06:39:24;101348.38;;;16.27;100.00
54808;BME280;40708;50.364;7.550;2022-07-06T06:41:50;101348.22;;;16.42;100.00
54808;BME280;40708;50.364;7.550;2022-07-06T06:44:15;101348.03;;;16.68;100.00
54808;BME280;40708;50.364;7.550;2022-07-06T06:46:42;101350.81;;;16.57;100.00
54808;BME280;40708;50.364;7.550;2022-07-06T06:49:08;101354.16;;;16.78;100.00
54808;BME280;40708;50.364;7.550;2022-07-06T06:51:33;101360.31;;;16.86;100.00
54808;BME280;40708;50.364;7.550;2022-07-06T06:53:59;101358.94;;;17.26;100.00
54808;BME280;40708;50.364;7.550;2022-07-06T06:56:24;101357.97;;;17.36;100.00
54808;BME280;40708;50.364;7.550;2022-07-06T06:58:50;101364.16;;;17.41;100.00
54808;BME280;40708;50.364;7.550;2022-07-06T07:01:15;101358.94;;;17.95;100.00
54808;BME280;40708;50.364;7.550;2022-07-06T07:03:40;101355.81;;;18.23;100.00
54808;BME280;40708;50.364;7.550;2022-07-06T07:06:06;101349.34;;;18.32;100.00
54808;BME280;40708;50.364;7.550;2022-07-06T07:08:31;101350.31;;;18.29;100.00
54808;BME280;40708;50.364;7.550;2022-07-06T07:10:56;101360.25;;;18.24;100.00
54808;BME280;40708;50.364;7.550;2022-07-06T07:13:22;101362.75;;;17.78;100.00
54808;BME280;40708;50.364;7.550;2022-07-06T07:15:48;101370.56;;;17.95;100.00
54808;BME280;40708;50.364;7.550;2022-07-06T07:18:13;101361.94;;;18.30;100.00
54808;BME280;40708;50.364;7.550;2022-07-06T07:20:38;101366.88;;;18.57;100.00
54808;BME280;40708;50.364;7.550;2022-07-06T07:23:04;101364.31;;;18.50;100.00
54808;BME280;40708;50.364;7.550;2022-07-06T07:25:29;101356.97;;;18.61;100.00
54808;BME280;40708;50.364;7.550;2022-07-06T07:27:54;101369.44;;;18.10;100.00
54808;BME280;40708;50.364;7.550;2022-07-06T07:30:20;101360.16;;;18.30;100.00
54808;BME280;40708;50.364;7.550;2022-07-06T07:32:45;101353.72;;;18.39;100.00
54808;BME280;40708;50.364;7.550;2022-07-06T07:35:11;101348.19;;;19.43;100.00
54808;BME280;40708;50.364;7.550;2022-07-06T07:37:36;101357.19;;;18.94;100.00
54808;BME280;40708;50.364;7.550;2022-07-06T07:40:03;101352.41;;;19.54;100.00
54808;BME280;40708;50.364;7.550;2022-07-06T07:42:29;101350.53;;;19.15;100.00
54808;BME280;40708;50.364;7.550;2022-07-06T07:44:54;101353.09;;;19.21;100.00
54808;BME280;40708;50.364;7.550;2022-07-06T07:47:20;101361.25;;;19.59;100.00
54808;BME280;40708;50.364;7.550;2022-07-06T07:49:45;101349.16;;;19.79;100.00
54808;BME280;40708;50.364;7.550;2022-07-06T07:52:10;101347.66;;;20.04;100.00
54808;BME280;40708;50.364;7.550;2022-07-06T07:54:36;101345.22;;;20.32;100.00
54808;BME280;40708;50.364;7.550;2022-07-06T07:57:02;101341.50;;;20.69;100.00
54808;BME280;40708;50.364;7.550;2022-07-06T07:59:28;101348.84;;;20.64;100.00
54808;BME280;40708;50.364;7.550;2022-07-06T08:01:53;101334.72;;;20.55;100.00
54808;BME280;40708;50.364;7.550;2022-07-06T08:04:19;101328.19;;;20.63;100.00
54808;BME280;40708;50.364;7.550;2022-07-06T08:06:45;101341.47;;;21.35;100.00
54808;BME280;40708;50.364;7.550;2022-07-06T08:09:10;101340.66;;;21.32;100.00
54808;BME280;40708;50.364;7.550;2022-07-06T08:11:36;101343.75;;;20.86;100.00
54808;BME280;40708;50.364;7.550;2022-07-06T08:14:02;101340.13;;;20.18;100.00
54808;BME280;40708;50.364;7.550;2022-07-06T08:16:28;101345.38;;;19.87;100.00
54808;BME280;40708;50.364;7.550;2022-07-06T08:18:54;101346.16;;;19.10;100.00
54808;BME280;40708;50.364;7.550;2022-07-06T08:21:19;101341.75;;;19.50;100.00
54808;BME280;40708;50.364;7.550;2022-07-06T08:23:45;101342.41;;;19.61;100.00
54808;BME280;40708;50.364;7.550;2022-07-06T08:26:10;101348.06;;;19.87;100.00
54808;BME280;40708;50.364;7.550;2022-07-06T08:28:35;101332.19;;;20.12;100.00
54808;BME280;40708;50.364;7.550;2022-07-06T08:31:01;101335.81;;;20.48;100.00
54808;BME280;40708;50.364;7.550;2022-07-06T08:33:26;101330.06;;;20.94;100.00
54808;BME280;40708;50.364;7.550;2022-07-06T08:35:51;101336.34;;;20.94;100.00
54808;BME280;40708;50.364;7.550;2022-07-06T08:38:17;101329.22;;;22.10;100.00
54808;BME280;40708;50.364;7.550;2022-07-06T08:40:45;101332.38;;;21.38;100.00
54808;BME280;40708;50.364;7.550;2022-07-06T08:43:11;101335.50;;;20.92;100.00
54808;BME280;40708;50.364;7.550;2022-07-06T08:45:39;101345.03;;;20.73;100.00
54808;BME280;40708;50.364;7.550;2022-07-06T08:48:07;101331.78;;;20.64;100.00
54808;BME280;40708;50.364;7.550;2022-07-06T08:50:33;101337.97;;;20.34;100.00
54808;BME280;40708;50.364;7.550;2022-07-06T08:52:59;101330.88;;;20.65;100.00
54808;BME280;40708;50.364;7.550;2022-07-06T08:55:28;101329.00;;;20.67;100.00
54808;BME280;40708;50.364;7.550;2022-07-06T08:57:55;101333.84;;;20.17;100.00
54808;BME280;40708;50.364;7.550;2022-07-06T09:00:24;101335.81;;;19.74;100.00
54808;BME280;40708;50.364;7.550;2022-07-06T09:02:51;101345.94;;;19.63;100.00
54808;BME280;40708;50.364;7.550;2022-07-06T09:05:21;101346.63;;;19.73;100.00
54808;BME280;40708;50.364;7.550;2022-07-06T09:07:49;101339.22;;;19.82;100.00
54808;BME280;40708;50.364;7.550;2022-07-06T09:10:17;101338.28;;;19.43;100.00
54808;BME280;40708;50.364;7.550;2022-07-06T09:12:44;101334.63;;;20.24;100.00
54808;BME280;40708;50.364;7.550;2022-07-06T09:15:09;101322.59;;;20.00;100.00
54808;BME280;40708;50.364;7.550;2022-07-06T09:17:38;101333.03;;;20.51;100.00
54808;BME280;40708;50.364;7.550;2022-07-06T09:20:07;101326.59;;;20.19;100.00
54808;BME280;40708;50.364;7.550;2022-07-06T09:22:34;101322.19;;;20.52;100.00
54808;BME280;40708;50.364;7.550;2022-07-06T09:25:13;101318.06;;;20.71;100.00
54808;BME280;40708;50.364;7.550;2022-07-06T09:27:40;101321.16;;;20.90;100.00
54808;BME280;40708;50.364;7.550;2022-07-06T09:30:08;101315.78;;;21.22;100.00
54808;BME280;40708;50.364;7.550;2022-07-06T09:32:40;101312.53;;;21.98;100.00
54808;BME280;40708;50.364;7.550;2022-07-06T09:35:06;101313.56;;;22.46;100.00
54808;BME280;40708;50.364;7.550;2022-07-06T09:37:31;101321.38;;;22.29;100.00
54808;BME280;40708;50.364;7.550;2022-07-06T09:39:57;101329.22;;;21.53;100.00
54808;BME280;40708;50.364;7.550;2022-07-06T09:42:25;101346.00;;;21.33;100.00
54808;BME280;40708;50.364;7.550;2022-07-06T09:44:52;101336.88;;;21.08;100.00
54808;BME280;40708;50.364;7.550;2022-07-06T09:47:18;101338.78;;;20.37;100.00
54808;BME280;40708;50.364;7.550;2022-07-06T09:49:45;101343.16;;;20.41;100.00
54808;BME280;40708;50.364;7.550;2022-07-06T09:52:11;101339.66;;;20.38;100.00
54808;BME280;40708;50.364;7.550;2022-07-06T09:54:37;101341.78;;;20.25;100.00
54808;BME280;40708;50.364;7.550;2022-07-06T09:57:04;101336.72;;;20.47;100.00
54808;BME280;40708;50.364;7.550;2022-07-06T09:59:32;101329.69;;;20.41;100.00
54808;BME280;40708;50.364;7.550;2022-07-06T10:02:01;101329.06;;;20.96;100.00
54808;BME280;40708;50.364;7.550;2022-07-06T10:04:28;101334.03;;;21.44;100.00
54808;BME280;40708;50.364;7.550;2022-07-06T10:06:56;101331.25;;;21.16;100.00
54808;BME280;40708;50.364;7.550;2022-07-06T10:09:23;101323.06;;;21.19;100.00
54808;BME280;40708;50.364;7.550;2022-07-06T10:11:59;101325.56;;;21.83;100.00
54808;BME280;40708;50.364;7.550;2022-07-06T10:14:32;101328.88;;;21.64;100.00
54808;BME280;40708;50.364;7.550;2022-07-06T10:17:01;101319.16;;;21.87;100.00
54808;BME280;40708;50.364;7.550;2022-07-06T10:19:28;101320.75;;;21.65;100.00
54808;BME280;40708;50.364;7.550;2022-07-06T10:21:56;101323.47;;;21.64;100.00
54808;BME280;40708;50.364;7.550;2022-07-06T10:24:23;101319.47;;;22.06;100.00
54808;BME280;40708;50.364;7.550;2022-07-06T10:26:50;101316.28;;;22.46;100.00
54808;BME280;40708;50.364;7.550;2022-07-06T10:29:15;101305.22;;;22.27;100.00
54808;BME280;40708;50.364;7.550;2022-07-06T10:31:44;101305.84;;;22.09;100.00
54808;BME280;40708;50.364;7.550;2022-07-06T10:34:12;101311.91;;;22.16;100.00
54808;BME280;40708;50.364;7.550;2022-07-06T10:36:39;101306.41;;;22.71;100.00
54808;BME280;40708;50.364;7.550;2022-07-06T10:39:05;101307.78;;;22.57;100.00
54808;BME280;40708;50.364;7.550;2022-07-06T10:41:50;101314.56;;;22.94;100.00
54808;BME280;40708;50.364;7.550;2022-07-06T10:44:24;101312.16;;;22.61;100.00
54808;BME280;40708;50.364;7.550;2022-07-06T10:46:55;101311.09;;;22.14;100.00
54808;BME280;40708;50.364;7.550;2022-07-06T10:49:22;101316.56;;;22.12;100.00
54808;BME280;40708;50.364;7.550;2022-07-06T10:51:48;101317.06;;;21.68;100.00
54808;BME280;40708;50.364;7.550;2022-07-06T10:54:15;101323.09;;;21.76;100.00
54808;BME280;40708;50.364;7.550;2022-07-06T10:56:46;101319.94;;;21.91;100.00
54808;BME280;40708;50.364;7.550;2022-07-06T10:59:16;101321.47;;;22.00;100.00
54808;BME280;40708;50.364;7.550;2022-07-06T11:02:11;101324.63;;;21.57;100.00
54808;BME280;40708;50.364;7.550;2022-07-06T11:04:37;101318.97;;;21.35;100.00
54808;BME280;40708;50.364;7.550;2022-07-06T11:07:08;101325.97;;;21.71;100.00
54808;BME280;40708;50.364;7.550;2022-07-06T11:09:35;101328.56;;;21.45;100.00
54808;BME280;40708;50.364;7.550;2022-07-06T11:12:15;101333.81;;;20.88;100.00
54808;BME280;40708;50.364;7.550;2022-07-06T11:14:40;101330.19;;;20.89;100.00
54808;BME280;40708;50.364;7.550;2022-07-06T11:17:10;101324.66;;;20.94;100.00
54808;BME280;40708;50.364;7.550;2022-07-06T11:19:35;101320.09;;;21.57;100.00
54808;BME280;40708;50.364;7.550;2022-07-06T11:22:05;101320.09;;;21.86;100.00
54808;BME280;40708;50.364;7.550;2022-07-06T11:24:32;101314.56;;;22.17;100.00
54808;BME280;40708;50.364;7.550;2022-07-06T11:26:59;101305.66;;;21.87;100.00
54808;BME280;40708;50.364;7.550;2022-07-06T11:29:26;101312.88;;;21.58;100.00
54808;BME280;40708;50.364;7.550;2022-07-06T11:31:55;101306.69;;;21.54;100.00
54808;BME280;40708;50.364;7.550;2022-07-06T11:34:29;101310.66;;;21.43;100.00
54808;BME280;40708;50.364;7.550;2022-07-06T11:37:03;101308.66;;;21.49;100.00
54808;BME280;40708;50.364;7.550;2022-07-06T11:39:33;101314.63;;;21.59;100.00
54808;BME280;40708;50.364;7.550;2022-07-06T11:41:59;101310.09;;;22.16;100.00
54808;BME280;40708;50.364;7.550;2022-07-06T11:44:26;101300.38;;;22.63;100.00
54808;BME280;40708;50.364;7.550;2022-07-06T11:46:51;101305.94;;;22.32;100.00
54808;BME280;40708;50.364;7.550;2022-07-06T11:49:17;101297.81;;;22.32;99.24
54808;BME280;40708;50.364;7.550;2022-07-06T11:51:45;101293.84;;;23.18;93.64
54808;BME280;40708;50.364;7.550;2022-07-06T11:54:13;101291.72;;;23.26;94.97
54808;BME280;40708;50.364;7.550;2022-07-06T11:56:58;101288.19;;;22.99;94.81
54808;BME280;40708;50.364;7.550;2022-07-06T11:59:26;101283.19;;;22.89;96.10
54808;BME280;40708;50.364;7.550;2022-07-06T12:02:12;101291.31;;;22.64;95.91
54808;BME280;40708;50.364;7.550;2022-07-06T12:04:40;101287.41;;;22.46;100.00
54808;BME280;40708;50.364;7.550;2022-07-06T12:07:10;101287.03;;;21.77;98.76
54808;BME280;40708;50.364;7.550;2022-07-06T12:09:41;101293.31;;;20.90;100.00
54808;BME280;40708;50.364;7.550;2022-07-06T12:12:08;101293.53;;;21.44;100.00
54808;BME280;40708;50.364;7.550;2022-07-06T12:14:36;101294.63;;;21.93;100.00
54808;BME280;40708;50.364;7.550;2022-07-06T12:17:04;101281.50;;;22.35;100.00
54808;BME280;40708;50.364;7.550;2022-07-06T12:19:30;101282.66;;;22.53;98.74
54808;BME280;40708;50.364;7.550;2022-07-06T12:21:55;101278.47;;;22.71;95.49
54808;BME280;40708;50.364;7.550;2022-07-06T12:24:26;101286.78;;;22.65;92.01
54808;BME280;40708;50.364;7.550;2022-07-06T12:26:54;101276.63;;;22.45;91.11
54808;BME280;40708;50.364;7.550;2022-07-06T12:29:20;101268.81;;;22.11;95.70
54808;BME280;40708;50.364;7.550;2022-07-06T12:31:50;101273.34;;;22.62;92.82
54808;BME280;40708;50.364;7.550;2022-07-06T12:36:53;101265.44;;;22.82;96.44
54808;BME280;40708;50.364;7.550;2022-07-06T12:39:20;101253.56;;;23.09;91.05